Beatty, OR (97621)

6:55 PM PDT on July 25, 2014 (GMT -0700)
Ferguson Mountain (KORBEATT2) Elev 4843 ft | 42.48 °N, 121.21 °W | Change Station

Current weather conditions updated 37 seconds ago

Clear
Clear
82.6 °F
Feels Like 80 °F
N
4.0
Wind Variable Wind from WNW
Gusts 6.0 mph

Tomorrow is forecast to be Warmer than today.

Today
High -- | Low -- °F
--% Chance of Precip.
Yesterday
High -- | Low -- °F
Precip. -- in
5:50 AM 8:31 PM
Waning Crescent, 1% visible
Pressure 29.94 in
Visibility 10.0 miles
Clouds Clear
Heat Index 80 °F
Dew Point 29 °F
Humidity 14%
Rainfall 0.00 in
Snow Depth Not available.
UV 3 out of 12
Pollen 4.40 out of 12
Air Quality Not available.
Flu Activity Not available.
METAR KLMT 260053Z AUTO 32011KT 10SM CLR 28/M01 A3005 RMK AO2 SLP136 T02831006

More Conditions Fewer Conditions

Pressure 29.94 in
Visibility 10.0 miles
Clouds Clear
Heat Index 80 °F
Dew Point 29 °F
Humidity 14%
Rainfall 0.00 in
Snow Depth Not available.
UV 3 out of 12
Pollen 4.40 out of 12
Air Quality Not available.
Flu Activity Not available.
METAR KLMT 260053Z AUTO 32011KT 10SM CLR 28/M01 A3005 RMK AO2 SLP136 T02831006

More Conditions Fewer Conditions

10-Day Weather Forecast

Almanac

Astronomy

Jul. 25, 2014 Rise Set
Actual Time 5:50 AM PDT 8:31 PM PDT
Civil Twilight 5:17 AM PDT 9:04 PM PDT
Nautical Twilight 4:36 AM PDT 9:44 PM PDT
Astronomical Twilight 3:49 AM PDT 10:31 PM PDT
Moon 4:55 AM PDT (7/25) 7:30 PM PDT (7/25)
Length of Visible Light 15h 46m
Length of Day
14h 41m
Tomorrow will be 1m 57s shorter.
Waning Crescent, 1% of the Moon is Illuminated
Today
Waning Crescent
Jul 26
New
Aug 3
First Quarter
Aug 10
Full
Aug 17
Last Quarter

Today's Extremes

State Highs State Lows

Community

WunderPhotos

Upload Photos

1,737,474 photos uploaded!

Nearby

Snow Depth

Station Depth Elevation
Strawberry 0 in 5760 ft
Sevenmile Marsh 0 in 6200 ft
Fourmile Lake 0 in 6000 ft
Fish Lake 0 in 4665 ft
Diamond Lake 0 in 5315 ft

Earthquake Activity

City Distance Mag. Time & Date
La Pine, Oregon 86 miles 2.6 11:50 AM PDT
2014-07-21
Lakeview, Oregon 88 miles 2.7 8:51 PM PDT
2014-07-20
Lakeview, Oregon 86 miles 2.5 9:31 AM PDT
2014-07-19
Minimum magnitude displayed is 2.5.

Coastal Water Temperatures

Place Temperature
No Stations Reporting

Nearby Weather Stations

Station Location Temp. Heat Index Dew Point Humidity Wind Precip. Elev Updated Type
Ferguson Mountain, Beatty, OR 82.6 °F 80 °F 29 °F 14% WNW  at  4.0 mph 0.00 in / hr 4843 ft 6:55 PM PDT Rapid Fire
Sprague River, Sprague River, OR 81.7 °F 80 °F 32 °F 17% NNW  at  1.1 mph 0.00 in / hr 4406 ft 6:55 PM PDT Normal
RAWS STRAWBERRY OR, Bonanza, OR 80 °F 78 °F 19 °F 10% WNW  at  5 mph 0.00 in / hr 5589 ft 6:03 PM PDT MADIS
RAWS CALIMUS OR, Sprague River, OR 74 °F 74 °F 18 °F 12% WSW  at  10 mph 0.00 in / hr 6628 ft 6:00 PM PDT MADIS

Show More Stations Show Fewer Stations